Time;durP1;ratioP1;P1;durP2;ratioP2;P2;SDS_P1;SDS_P2;PMS_P1;PMS_P2;Temp;Humidity;BMP_temperature;BMP_pressure;BME280_temperature;BME280_humidity;BME280_pressure;Samples;Min_cycle;Max_cycle;Signal;HPM_P1;HPM_P2
2022/06/03 00:28:35;;;;;;;5.53;4.20;;;5.40;99.90;;;;;;8400838;28;20229;-67
2022/06/03 00:33:04;;;;;;;6.03;4.27;;;5.30;99.90;;;;;;8392919;28;20185;-67
2022/06/03 00:37:31;;;;;;;5.07;4.37;;;5.40;99.90;;;;;;8399749;28;20269;-67
2022/06/03 00:52:03;;;;;;;4.23;3.83;;;5.20;99.90;;;;;;8403615;28;21900;-67
2022/06/03 00:56:32;;;;;;;4.77;3.87;;;5.10;99.90;;;;;;8407859;28;20185;-67
2022/06/03 01:00:40;;;;;;;6.13;5.00;;;5.10;99.90;;;;;;8391013;28;20672;-68
2022/06/03 01:04:49;;;;;;;5.43;3.90;;;5.00;99.90;;;;;;8398893;28;20190;-65
2022/06/03 01:18:57;;;;;;;5.17;4.30;;;4.80;99.90;;;;;;8394854;28;20288;-67
2022/06/03 01:23:09;;;;;;;5.27;4.13;;;4.70;99.90;;;;;;8406553;28;20186;-66
2022/06/03 01:27:25;;;;;;;4.23;3.83;;;4.70;99.90;;;;;;8405054;28;20224;-67
2022/06/03 01:31:58;;;;;;;5.67;4.40;;;4.60;99.90;;;;;;8411343;28;20186;-67
2022/06/03 01:36:29;;;;;;;5.13;4.00;;;4.50;99.90;;;;;;8400374;28;20226;-67
2022/06/03 01:41:03;;;;;;;5.77;4.33;;;4.50;99.90;;;;;;8401353;28;20215;-67
2022/06/03 01:45:22;;;;;;;5.43;4.13;;;4.50;99.90;;;;;;8408567;28;20177;-66
2022/06/03 01:49:35;;;;;;;5.83;4.37;;;4.50;99.90;;;;;;8401816;28;20186;-67
2022/06/03 01:54:03;;;;;;;5.43;4.17;;;4.50;99.90;;;;;;8403823;28;20181;-66
2022/06/03 01:58:07;;;;;;;4.80;3.90;;;4.40;99.90;;;;;;8412100;28;20255;-66
2022/06/03 02:02:45;;;;;;;5.50;3.63;;;4.40;99.90;;;;;;8404830;28;20206;-67
2022/06/03 02:07:15;;;;;;;5.33;3.87;;;4.30;99.90;;;;;;8401763;28;20184;-67
2022/06/03 02:11:30;;;;;;;4.13;3.73;;;4.30;99.90;;;;;;8401422;28;20339;-67
2022/06/03 02:16:00;;;;;;;5.83;4.30;;;4.30;99.90;;;;;;8408060;28;20189;-67
2022/06/03 02:20:19;;;;;;;5.00;4.00;;;4.30;99.90;;;;;;8386537;28;20209;-67
2022/06/03 02:24:34;;;;;;;5.40;4.17;;;4.30;99.90;;;;;;8400473;28;20189;-64
2022/06/03 02:28:47;;;;;;;4.77;3.90;;;4.20;99.90;;;;;;8396890;28;20368;-67
2022/06/03 02:33:26;;;;;;;4.13;3.43;;;4.10;99.90;;;;;;8399803;28;20189;-67
2022/06/03 02:37:49;;;;;;;4.00;3.40;;;4.10;99.90;;;;;;8406077;28;20180;-65
2022/06/03 02:42:09;;;;;;;3.93;2.77;;;4.00;99.90;;;;;;8404755;28;20534;-66
2022/06/03 02:46:19;;;;;;;3.73;3.00;;;3.90;99.90;;;;;;8399247;28;20186;-64
2022/06/03 02:50:39;;;;;;;3.97;3.27;;;3.90;99.90;;;;;;8409712;28;20184;-65
2022/06/03 02:55:12;;;;;;;4.40;3.53;;;3.90;99.90;;;;;;8408725;28;20189;-66
2022/06/03 02:59:41;;;;;;;4.43;3.40;;;3.90;99.90;;;;;;8404163;28;20231;-66
2022/06/03 03:04:00;;;;;;;3.63;3.33;;;4.00;99.90;;;;;;8410518;28;20263;-67
2022/06/03 03:08:27;;;;;;;4.47;3.37;;;4.10;99.90;;;;;;8408377;28;20183;-67
2022/06/03 03:12:55;;;;;;;4.87;4.03;;;4.20;99.90;;;;;;8377815;28;20186;-67
2022/06/03 03:17:37;;;;;;;5.63;4.40;;;5.00;99.90;;;;;;8405630;28;20201;-66
2022/06/03 03:22:06;;;;;;;4.23;3.70;;;6.30;99.90;;;;;;8398703;28;20226;-66
2022/06/03 03:26:06;;;;;;;4.23;3.03;;;7.60;99.90;;;;;;8408874;28;20200;-66
2022/06/03 03:30:10;;;;;;;4.13;3.50;;;8.70;1.00;;;;;;8404685;28;20196;-66
2022/06/03 03:34:46;;;;;;;3.23;2.73;;;9.70;1.00;;;;;;8409075;28;20173;-66
2022/06/03 03:39:24;;;;;;;3.40;2.40;;;10.80;99.90;;;;;;8418691;28;20205;-66
2022/06/03 03:43:40;;;;;;;2.67;2.40;;;11.80;1.00;;;;;;8418939;28;20177;-66
2022/06/03 03:48:05;;;;;;;2.90;2.60;;;12.70;1.00;;;;;;8404910;28;20204;-67
2022/06/03 03:52:28;;;;;;;2.47;2.10;;;13.50;81.70;;;;;;8412299;28;20170;-67
2022/06/03 03:56:47;;;;;;;2.20;1.87;;;14.20;1.00;;;;;;8410816;28;20281;-67
2022/06/03 04:01:01;;;;;;;3.50;2.00;;;14.80;99.90;;;;;;8408517;28;20197;-68
2022/06/03 04:05:23;;;;;;;2.50;1.80;;;15.30;99.90;;;;;;8415661;28;20187;-67
2022/06/03 04:09:45;;;;;;;3.40;2.47;;;15.80;99.90;;;;;;8402050;28;20185;-67
2022/06/03 04:13:58;;;;;;;3.07;2.20;;;15.80;99.90;;;;;;8402368;28;20195;-67
2022/06/03 04:18:20;;;;;;;2.97;1.67;;;16.00;99.90;;;;;;8410121;28;20262;-68
2022/06/03 04:22:33;;;;;;;2.60;1.80;;;16.00;99.90;;;;;;8405633;28;20239;-68
2022/06/03 04:26:49;;;;;;;2.93;2.17;;;16.50;99.90;;;;;;8409426;28;20238;-68
2022/06/03 04:31:13;;;;;;;3.00;2.00;;;16.80;99.90;;;;;;8398296;28;20216;-72
2022/06/03 04:35:32;;;;;;;2.27;2.00;;;17.50;88.90;;;;;;8399617;28;20189;-68
2022/06/03 04:40:11;;;;;;;2.33;1.57;;;17.60;95.10;;;;;;8412026;28;20193;-70
2022/06/03 04:44:31;;;;;;;3.93;2.30;;;17.90;97.90;;;;;;8401418;28;20225;-68
2022/06/03 04:48:31;;;;;;;3.53;2.73;;;18.10;55.90;;;;;;8401678;28;20208;-68
2022/06/03 04:52:50;;;;;;;3.83;2.30;;;17.50;99.70;;;;;;8410770;28;20678;-68
2022/06/03 04:57:36;;;;;;;3.57;2.37;;;17.70;99.90;;;;;;8397108;28;20183;-69
2022/06/03 05:02:18;;;;;;;2.30;2.10;;;17.80;99.90;;;;;;8404002;28;20199;-69
2022/06/03 05:06:53;;;;;;;3.13;2.77;;;17.70;99.90;;;;;;8400385;28;20181;-68
2022/06/03 05:10:56;;;;;;;4.57;3.00;;;17.00;99.90;;;;;;8401168;28;20177;-67
2022/06/03 05:15:00;;;;;;;7.23;4.83;;;15.90;1.00;;;;;;8395869;28;20221;-68
2022/06/03 05:19:01;;;;;;;6.40;4.83;;;15.20;1.00;;;;;;8404624;28;20227;-68
2022/06/03 05:23:01;;;;;;;8.93;5.80;;;14.80;99.90;;;;;;8405265;28;20180;-68
2022/06/03 05:27:14;;;;;;;16.27;9.80;;;14.40;99.90;;;;;;8395379;28;20219;-66
2022/06/03 05:31:39;;;;;;;17.03;10.83;;;14.40;99.90;;;;;;8412994;28;20185;-69
2022/06/03 05:36:01;;;;;;;17.07;10.60;;;14.50;99.90;;;;;;8406481;28;20180;-69
2022/06/03 05:40:05;;;;;;;15.27;8.80;;;14.60;99.90;;;;;;8399635;28;20204;-69
2022/06/03 05:44:19;;;;;;;12.30;6.90;;;14.80;99.90;;;;;;8400245;28;20184;-70
2022/06/03 05:48:31;;;;;;;3.67;2.70;;;14.90;99.90;;;;;;8404076;28;20219;-66
2022/06/03 05:52:59;;;;;;;3.07;2.07;;;15.10;1.00;;;;;;8400585;28;20187;-68
2022/06/03 05:57:12;;;;;;;2.70;2.30;;;15.40;99.90;;;;;;8406285;28;20175;-66
2022/06/03 06:01:44;;;;;;;3.70;2.03;;;15.60;1.00;;;;;;8400504;28;20208;-68
2022/06/03 06:05:50;;;;;;;2.87;2.13;;;15.90;99.90;;;;;;8399938;28;20186;-66
2022/06/03 06:10:14;;;;;;;2.77;1.90;;;16.10;1.00;;;;;;8398139;28;20192;-69
2022/06/03 06:14:30;;;;;;;3.67;2.10;;;16.40;99.90;;;;;;8407852;28;20195;-67
2022/06/03 06:18:43;;;;;;;2.73;2.07;;;16.60;99.90;;;;;;8409408;28;20209;-68
2022/06/03 06:22:48;;;;;;;2.20;2.00;;;16.70;99.90;;;;;;8408894;28;20206;-67
2022/06/03 06:27:09;;;;;;;2.23;2.03;;;17.00;99.90;;;;;;8404715;28;20213;-68
2022/06/03 06:31:35;;;;;;;6.23;2.20;;;17.10;99.90;;;;;;8392238;28;20216;-68
2022/06/03 06:35:38;;;;;;;2.83;1.93;;;17.20;99.90;;;;;;8403568;28;20187;-67
2022/06/03 06:40:00;;;;;;;4.13;1.80;;;17.30;99.90;;;;;;8407359;28;20232;-68
2022/06/03 06:44:12;;;;;;;1.83;1.70;;;17.50;99.90;;;;;;8410349;28;20183;-73
2022/06/03 06:48:27;;;;;;;2.90;1.20;;;17.70;99.90;;;;;;8404625;28;20177;-69
2022/06/03 06:52:50;;;;;;;2.10;1.50;;;17.70;99.90;;;;;;8413451;28;20268;-66
2022/06/03 06:57:05;;;;;;;1.73;1.47;;;17.80;99.90;;;;;;8410699;28;20182;-72
2022/06/03 07:01:06;;;;;;;1.53;1.30;;;18.00;99.90;;;;;;8399167;28;20198;-70
2022/06/03 07:05:29;;;;;;;1.50;1.30;;;18.10;99.90;;;;;;8403318;28;20173;-70
2022/06/03 07:09:35;;;;;;;4.00;1.10;;;18.30;99.90;;;;;;8404955;28;20240;-68
2022/06/03 07:13:54;;;;;;;5.17;1.23;;;18.50;91.50;;;;;;8407652;28;20181;-71
2022/06/03 07:23:01;;;;;;;2.40;1.20;;;18.80;99.90;;;;;;8387415;28;20200;-68
2022/06/03 07:27:15;;;;;;;1.70;1.20;;;19.00;85.30;;;;;;8406091;28;20220;-69
2022/06/03 07:31:34;;;;;;;1.40;1.30;;;19.10;39.20;;;;;;8400133;28;20236;-70
2022/06/03 07:36:01;;;;;;;4.03;1.53;;;19.20;41.00;;;;;;8400323;28;20169;-68
2022/06/03 07:40:18;;;;;;;1.37;1.20;;;19.20;38.70;;;;;;8372117;28;20289;-70
2022/06/03 07:44:44;;;;;;;1.70;1.40;;;19.30;60.00;;;;;;8403247;28;20173;-67
2022/06/03 07:48:46;;;;;;;2.30;1.57;;;19.50;21.40;;;;;;8400937;28;20277;-72
2022/06/03 07:52:50;;;;;;;2.13;1.13;;;19.60;1.00;;;;;;8404751;28;20184;-71
2022/06/03 07:57:04;;;;;;;2.33;1.00;;;19.70;21.10;;;;;;8398605;28;20192;-70
2022/06/03 08:01:19;;;;;;;3.13;1.10;;;19.80;1.00;;;;;;8405644;28;20201;-67
2022/06/03 08:05:20;;;;;;;2.47;1.40;;;20.00;1.00;;;;;;8414538;28;20449;-66
2022/06/03 08:13:50;;;;;;;4.80;1.40;;;20.30;1.00;;;;;;8403317;28;20200;-68
2022/06/03 08:17:52;;;;;;;1.90;1.60;;;20.40;1.00;;;;;;8408960;28;20191;-67
2022/06/03 08:21:58;;;;;;;2.33;1.30;;;20.50;1.00;;;;;;8409309;28;20205;-67
2022/06/03 08:26:05;;;;;;;3.10;1.57;;;20.60;1.00;;;;;;8400061;28;20181;-67
2022/06/03 08:30:28;;;;;;;1.73;1.53;;;20.80;1.00;;;;;;8405385;28;20200;-68
2022/06/03 08:34:39;;;;;;;1.83;1.30;;;20.90;1.00;;;;;;8414526;27;20640;-68
2022/06/03 08:38:52;;;;;;;3.20;1.63;;;21.00;1.00;;;;;;8401391;28;20204;-68
2022/06/03 08:43:10;;;;;;;2.70;1.60;;;21.20;1.00;;;;;;8413390;28;20184;-68
2022/06/03 08:47:14;;;;;;;1.77;1.20;;;21.40;1.00;;;;;;8397180;28;20177;-70
2022/06/03 08:51:21;;;;;;;2.93;1.23;;;21.50;1.00;;;;;;8404331;28;20328;-69
2022/06/03 08:55:22;;;;;;;1.73;1.10;;;21.60;1.00;;;;;;8403582;28;20181;-67
2022/06/03 09:00:01;;;;;;;1.70;1.30;;;21.70;1.00;;;;;;8406330;28;20196;-67
2022/06/03 09:04:09;;;;;;;2.80;1.13;;;21.70;1.00;;;;;;8352610;28;20311;-67
2022/06/03 09:08:33;;;;;;;1.90;1.30;;;21.80;1.00;;;;;;8408664;28;20164;-67
2022/06/03 09:12:55;;;;;;;2.23;1.40;;;21.90;1.00;;;;;;8404926;28;20173;-68
2022/06/03 09:17:04;;;;;;;1.83;1.30;;;22.00;1.00;;;;;;8400273;28;20255;-66
2022/06/03 09:21:10;;;;;;;3.93;1.60;;;22.10;1.00;;;;;;8405500;28;20254;-65
2022/06/03 09:25:14;;;;;;;1.87;1.10;;;22.30;1.00;;;;;;8405093;28;20172;-67
2022/06/03 09:29:16;;;;;;;3.13;1.17;;;22.40;1.00;;;;;;8405625;28;20251;-67
2022/06/03 09:33:21;;;;;;;1.47;1.00;;;22.50;1.00;;;;;;8395649;28;20212;-68
2022/06/03 09:37:26;;;;;;;3.83;1.20;;;22.60;1.00;;;;;;8400563;28;20193;-66
2022/06/03 09:41:33;;;;;;;3.00;1.00;;;22.80;1.00;;;;;;8415764;28;20207;-69
2022/06/03 09:45:35;;;;;;;2.10;0.83;;;22.90;1.00;;;;;;8406006;28;20261;-67
2022/06/03 09:49:36;;;;;;;1.43;1.20;;;23.00;1.00;;;;;;8403961;28;20271;-66
2022/06/03 09:53:42;;;;;;;1.30;1.00;;;23.10;1.00;;;;;;8408252;28;20614;-66
2022/06/03 09:57:44;;;;;;;1.63;1.00;;;23.10;1.00;;;;;;8407552;28;20172;-67
2022/06/03 10:01:46;;;;;;;1.60;0.80;;;23.10;1.00;;;;;;8403848;28;20215;-68
2022/06/03 10:05:50;;;;;;;1.23;1.10;;;23.10;1.00;;;;;;8405795;28;20229;-67
2022/06/03 10:14:12;;;;;;;1.47;0.90;;;23.40;1.00;;;;;;8409477;28;20244;-70
2022/06/03 10:18:25;;;;;;;4.00;0.97;;;23.50;1.00;;;;;;8406357;28;20177;-69
2022/06/03 10:22:26;;;;;;;0.73;0.63;;;23.70;1.00;;;;;;8403770;28;20192;-67
2022/06/03 10:26:33;;;;;;;3.17;0.77;;;23.80;1.00;;;;;;8407975;28;20185;-67
2022/06/03 10:30:37;;;;;;;1.90;0.80;;;24.00;1.00;;;;;;8406616;28;20181;-66
2022/06/03 10:34:40;;;;;;;0.80;0.60;;;24.00;1.00;;;;;;8401619;28;20185;-68
2022/06/03 10:38:40;;;;;;;1.13;0.87;;;24.10;1.00;;;;;;8408859;28;20769;-68
2022/06/03 10:42:46;;;;;;;1.40;0.80;;;24.20;1.00;;;;;;8410007;28;20223;-66
2022/06/03 10:46:58;;;;;;;1.80;0.87;;;24.20;1.00;;;;;;8407753;28;20204;-67
2022/06/03 10:51:18;;;;;;;1.83;0.70;;;24.20;1.00;;;;;;8417271;27;20191;-68
2022/06/03 11:04:05;;;;;;;2.40;0.80;;;24.50;1.00;;;;;;8402128;28;20220;-69
2022/06/03 11:08:08;;;;;;;1.30;0.70;;;24.60;1.00;;;;;;8405503;28;20177;-67
2022/06/03 11:12:10;;;;;;;1.60;0.90;;;24.60;1.00;;;;;;8400699;28;20184;-69
2022/06/03 11:16:18;;;;;;;2.07;1.00;;;24.80;1.00;;;;;;8408579;28;20306;-67
2022/06/03 11:20:39;;;;;;;0.80;0.80;;;24.90;1.00;;;;;;8402106;28;20232;-68
2022/06/03 11:24:40;;;;;;;3.80;0.70;;;24.90;1.00;;;;;;8404029;28;20200;-68
2022/06/03 11:28:53;;;;;;;1.17;0.80;;;25.00;1.00;;;;;;8396232;28;20209;-70
2022/06/03 11:33:02;;;;;;;1.10;0.70;;;25.00;1.00;;;;;;8406807;28;20188;-71
2022/06/03 11:37:14;;;;;;;2.13;0.70;;;25.00;1.00;;;;;;8407853;28;20176;-66
2022/06/03 11:41:35;;;;;;;2.33;0.80;;;25.00;1.00;;;;;;8410183;28;20205;-70
2022/06/03 11:45:44;;;;;;;1.85;0.50;;;25.10;1.00;;;;;;8405544;28;20183;-67
2022/06/03 11:49:45;;;;;;;1.17;0.60;;;25.30;1.00;;;;;;8407999;28;20201;-66
2022/06/03 11:53:48;;;;;;;1.50;0.80;;;25.30;1.00;;;;;;8402444;28;20185;-69
2022/06/03 11:58:08;;;;;;;1.02;0.88;;;25.50;1.00;;;;;;8401767;28;20186;-69
2022/06/03 12:02:33;;;;;;;1.52;1.00;;;25.70;1.00;;;;;;8400759;28;20222;-65
2022/06/03 12:06:40;;;;;;;1.55;0.80;;;25.70;1.00;;;;;;8403151;28;20342;-66
2022/06/03 12:10:56;;;;;;;1.10;0.60;;;25.80;1.00;;;;;;8406191;28;20176;-68
2022/06/03 12:15:18;;;;;;;1.23;0.70;;;26.00;1.00;;;;;;8410452;28;20180;-67
2022/06/03 12:19:44;;;;;;;1.88;0.70;;;26.00;1.00;;;;;;8401837;28;20203;-65
2022/06/03 12:23:53;;;;;;;4.72;0.82;;;25.90;1.00;;;;;;8397966;28;20288;-67
2022/06/03 12:27:54;;;;;;;1.30;0.73;;;25.90;1.00;;;;;;8405441;28;20231;-67
2022/06/03 12:32:08;;;;;;;0.93;0.70;;;25.80;1.00;;;;;;8409091;28;20192;-67
2022/06/03 12:36:47;;;;;;;0.93;0.80;;;25.90;1.00;;;;;;8406057;28;20205;-70
2022/06/03 12:40:51;;;;;;;2.55;0.70;;;26.00;1.00;;;;;;8409187;28;20208;-66
2022/06/03 12:45:14;;;;;;;5.07;2.28;;;26.10;1.00;;;;;;8402080;28;20184;-67
2022/06/03 12:49:34;;;;;;;2.53;0.80;;;26.10;1.00;;;;;;8414915;28;20235;-67
2022/06/03 12:53:41;;;;;;;1.20;0.93;;;26.20;1.00;;;;;;8395460;28;20502;-65
2022/06/03 12:57:58;;;;;;;0.75;0.63;;;26.20;1.00;;;;;;8409729;28;20180;-69
2022/06/03 13:02:00;;;;;;;3.03;0.80;;;26.20;1.00;;;;;;8402451;28;20205;-67
2022/06/03 13:06:05;;;;;;;1.45;0.75;;;26.20;1.00;;;;;;8409996;28;20222;-69
2022/06/03 13:10:09;;;;;;;0.98;0.90;;;26.10;1.00;;;;;;8399655;28;20267;-67
2022/06/03 13:14:27;;;;;;;2.45;1.08;;;25.90;1.00;;;;;;8399942;28;20184;-66
2022/06/03 13:18:37;;;;;;;0.50;0.50;;;26.00;1.00;;;;;;8411525;28;20187;-68
2022/06/03 13:22:49;;;;;;;1.30;0.80;;;26.00;1.00;;;;;;8411948;28;20181;-67
2022/06/03 13:27:11;;;;;;;1.20;0.73;;;26.00;1.00;;;;;;8406844;28;20220;-66
2022/06/03 13:31:19;;;;;;;3.53;0.95;;;26.00;1.00;;;;;;8410435;28;20176;-67
2022/06/03 13:35:30;;;;;;;1.38;1.08;;;26.00;1.00;;;;;;8405570;28;20177;-67
2022/06/03 13:39:31;;;;;;;1.50;1.00;;;26.10;1.00;;;;;;8416334;28;20200;-69
2022/06/03 13:43:32;;;;;;;1.25;1.00;;;26.10;1.00;;;;;;8409609;28;20192;-68
2022/06/03 13:47:49;;;;;;;1.58;0.90;;;26.00;1.00;;;;;;8403047;28;20514;-66
2022/06/03 13:51:57;;;;;;;1.85;0.85;;;26.10;1.00;;;;;;8409340;28;20188;-67
2022/06/03 13:56:07;;;;;;;2.30;1.15;;;26.20;1.00;;;;;;8415113;28;20196;-65
2022/06/03 14:00:28;;;;;;;1.13;0.75;;;26.20;1.00;;;;;;8410168;28;20200;-68
2022/06/03 14:04:31;;;;;;;1.20;0.70;;;26.30;1.00;;;;;;8415155;28;20177;-67
2022/06/03 14:08:41;;;;;;;1.90;1.00;;;26.40;1.00;;;;;;8411177;28;20270;-66
2022/06/03 14:12:54;;;;;;;1.77;0.90;;;26.40;1.00;;;;;;8408239;28;20176;-67
2022/06/03 14:17:19;;;;;;;2.03;1.10;;;26.30;1.00;;;;;;8404215;28;20186;-67
2022/06/03 14:21:33;;;;;;;1.50;0.88;;;26.30;1.00;;;;;;8409744;28;20226;-68
2022/06/03 14:25:50;;;;;;;0.88;0.82;;;26.40;1.00;;;;;;8406701;28;20222;-68
2022/06/03 14:30:00;;;;;;;1.52;0.80;;;26.30;1.00;;;;;;8411618;28;20215;-68
2022/06/03 14:34:25;;;;;;;1.17;0.80;;;26.20;1.00;;;;;;8399803;28;20184;-69
2022/06/03 14:38:26;;;;;;;1.70;0.73;;;26.20;1.00;;;;;;8410268;28;20207;-70
2022/06/03 14:42:31;;;;;;;3.97;0.90;;;26.20;1.00;;;;;;8404810;28;20254;-69
2022/06/03 14:46:47;;;;;;;0.70;0.68;;;26.30;1.00;;;;;;8405398;28;20192;-67
2022/06/03 14:50:59;;;;;;;2.72;0.80;;;26.30;1.00;;;;;;8407490;28;20185;-65
2022/06/03 14:55:09;;;;;;;3.10;1.10;;;26.20;1.00;;;;;;8408622;28;20180;-68
2022/06/03 14:59:19;;;;;;;2.88;1.30;;;26.10;1.00;;;;;;8403345;28;20196;-68
2022/06/03 15:03:22;;;;;;;2.97;1.15;;;26.00;1.00;;;;;;8399281;28;20240;-66
2022/06/03 15:07:36;;;;;;;1.80;1.10;;;25.90;1.00;;;;;;8406038;28;20184;-68
2022/06/03 15:11:44;;;;;;;2.95;1.02;;;26.00;1.00;;;;;;8406921;28;20511;-67
2022/06/03 15:15:49;;;;;;;10.65;5.18;;;26.10;1.00;;;;;;8415046;28;20517;-68
2022/06/03 15:19:59;;;;;;;3.15;1.38;;;26.30;1.00;;;;;;8412802;28;20200;-66
2022/06/03 15:24:03;;;;;;;4.00;1.23;;;26.10;1.00;;;;;;8411095;28;20203;-68
2022/06/03 15:28:08;;;;;;;4.40;1.20;;;26.00;1.00;;;;;;8397383;28;20304;-67
2022/06/03 15:32:09;;;;;;;7.22;1.15;;;25.90;1.00;;;;;;8407920;28;20310;-68
2022/06/03 15:36:17;;;;;;;2.42;1.40;;;25.90;1.00;;;;;;8410650;28;20180;-69
2022/06/03 15:40:37;;;;;;;0.80;0.70;;;25.80;1.00;;;;;;8403214;28;20244;-70
2022/06/03 15:44:43;;;;;;;1.60;1.27;;;25.70;1.00;;;;;;8411167;28;20169;-68
2022/06/03 15:49:02;;;;;;;1.43;1.00;;;25.70;1.00;;;;;;8410944;28;20185;-69
2022/06/03 15:53:04;;;;;;;5.07;2.20;;;25.60;1.00;;;;;;8398943;28;20173;-65
2022/06/03 15:57:38;;;;;;;2.53;1.10;;;25.60;1.00;;;;;;8414553;28;20177;-67
2022/06/03 16:01:57;;;;;;;1.23;1.10;;;25.70;1.00;;;;;;8361127;28;20224;-67
2022/06/03 16:06:05;;;;;;;3.20;1.42;;;25.80;1.00;;;;;;8403937;28;20246;-65
2022/06/03 16:10:33;;;;;;;5.93;1.47;;;25.80;1.00;;;;;;8406271;28;20173;-66
2022/06/03 16:14:46;;;;;;;6.97;2.90;;;25.60;1.00;;;;;;8404853;28;20234;-65
2022/06/03 16:19:18;;;;;;;2.17;1.13;;;25.60;1.00;;;;;;8400689;28;20209;-66
2022/06/03 16:23:32;;;;;;;9.10;4.45;;;25.60;1.00;;;;;;8404107;28;20177;-67
2022/06/03 16:28:17;;;;;;;3.80;2.77;;;25.70;1.00;;;;;;8401065;28;20232;-66
2022/06/03 16:32:33;;;;;;;4.63;2.40;;;25.80;1.00;;;;;;8376367;28;20185;-67
2022/06/03 16:37:12;;;;;;;1.20;1.10;;;25.80;1.00;;;;;;8406255;28;20173;-67
2022/06/03 16:42:08;;;;;;;5.23;2.40;;;25.80;1.00;;;;;;8408362;28;20228;-66
2022/06/03 16:46:15;;;;;;;4.30;2.07;;;25.70;1.00;;;;;;8351918;28;20188;-66
2022/06/03 16:50:26;;;;;;;2.50;1.63;;;25.60;1.00;;;;;;8405846;28;20276;-66
2022/06/03 16:54:34;;;;;;;2.23;1.20;;;25.50;1.00;;;;;;8405569;28;20195;-67
2022/06/03 16:58:49;;;;;;;12.00;4.13;;;25.30;1.00;;;;;;8403282;28;20184;-67
2022/06/03 17:02:57;;;;;;;10.70;4.10;;;25.20;1.00;;;;;;8395610;28;20176;-68
2022/06/03 17:06:59;;;;;;;3.77;1.83;;;25.30;1.00;;;;;;8400201;28;20177;-68
2022/06/03 17:11:08;;;;;;;3.17;2.27;;;25.30;1.00;;;;;;8405555;28;20222;-66
2022/06/03 17:15:10;;;;;;;2.40;1.80;;;25.20;1.00;;;;;;8408264;28;20242;-66
2022/06/03 17:19:12;;;;;;;2.63;1.80;;;25.20;1.00;;;;;;8405962;28;20201;-67
2022/06/03 17:23:22;;;;;;;5.10;2.30;;;25.30;1.00;;;;;;8399893;28;20217;-67
2022/06/03 17:27:29;;;;;;;3.83;2.43;;;25.40;1.00;;;;;;8401497;28;20274;-68
2022/06/03 17:31:52;;;;;;;4.53;2.60;;;25.70;1.00;;;;;;8401384;28;20200;-66
2022/06/03 17:36:18;;;;;;;1.40;1.30;;;26.30;1.00;;;;;;8401270;28;20321;-67
2022/06/03 17:40:43;;;;;;;1.98;1.33;;;27.10;1.00;;;;;;8413456;28;20212;-64
2022/06/03 17:45:05;;;;;;;1.90;0.93;;;28.10;1.00;;;;;;8404614;28;20193;-66
2022/06/03 17:49:45;;;;;;;2.60;1.20;;;28.70;1.00;;;;;;8399719;28;20176;-68
2022/06/03 17:58:11;;;;;;;3.10;1.17;;;28.00;1.00;;;;;;8402030;28;20224;-69
2022/06/03 18:02:41;;;;;;;3.58;1.13;;;28.10;1.00;;;;;;8414260;28;20204;-68
2022/06/03 18:06:58;;;;;;;1.67;1.02;;;27.90;1.00;;;;;;8407867;28;20183;-67
2022/06/03 18:11:11;;;;;;;1.52;1.17;;;27.60;1.00;;;;;;8413659;28;20212;-69
2022/06/03 18:15:21;;;;;;;1.33;1.02;;;26.90;1.00;;;;;;8412626;28;20185;-67
2022/06/03 18:19:31;;;;;;;2.17;1.52;;;26.30;1.00;;;;;;8411777;28;20239;-66
2022/06/03 18:24:05;;;;;;;1.70;1.43;;;25.90;1.00;;;;;;8423232;27;20182;-67
2022/06/03 18:28:51;;;;;;;3.40;2.33;;;25.70;1.00;;;;;;8416582;28;20216;-67
2022/06/03 18:33:01;;;;;;;2.23;1.60;;;25.70;1.00;;;;;;8414987;28;20517;-66
2022/06/03 18:37:20;;;;;;;2.70;1.70;;;25.80;1.00;;;;;;8410625;28;20172;-67
2022/06/03 18:41:38;;;;;;;5.00;2.93;;;25.40;1.00;;;;;;8408392;28;20200;-67
2022/06/03 18:46:07;;;;;;;3.60;3.30;;;24.60;1.00;;;;;;8401987;28;20227;-67
2022/06/03 18:50:48;;;;;;;3.37;2.63;;;24.00;1.00;;;;;;8409420;28;20181;-67
2022/06/03 18:55:03;;;;;;;10.57;5.23;;;23.40;1.00;;;;;;8392762;28;20211;-67
2022/06/03 18:59:52;;;;;;;14.80;7.30;;;22.90;1.00;;;;;;8414604;28;20205;-67
2022/06/03 19:04:04;;;;;;;7.43;3.60;;;22.50;1.00;;;;;;8408267;28;20180;-67
2022/06/03 19:08:32;;;;;;;6.73;3.23;;;22.10;1.00;;;;;;8403395;28;20176;-67
2022/06/03 19:12:54;;;;;;;4.37;3.60;;;21.80;1.00;;;;;;8408708;28;20205;-68
2022/06/03 19:17:17;;;;;;;6.53;3.70;;;21.50;1.00;;;;;;8403092;28;20252;-68
2022/06/03 19:21:49;;;;;;;5.57;3.63;;;21.20;10.70;;;;;;8419748;28;20208;-68
2022/06/03 19:25:50;;;;;;;2.90;2.60;;;20.80;50.00;;;;;;8418450;28;20203;-68
2022/06/03 19:30:06;;;;;;;2.27;1.90;;;20.50;99.90;;;;;;8428911;28;20244;-68
2022/06/03 19:34:14;;;;;;;5.00;3.40;;;20.10;99.90;;;;;;8400163;28;20233;-68
2022/06/03 19:39:02;;;;;;;3.83;3.43;;;19.80;99.90;;;;;;8409359;28;20542;-68
2022/06/03 19:43:22;;;;;;;3.20;2.50;;;19.60;99.90;;;;;;8390971;28;20193;-68
2022/06/03 19:47:52;;;;;;;2.87;2.07;;;19.30;99.90;;;;;;8396031;28;20185;-68
2022/06/03 19:52:04;;;;;;;2.00;1.80;;;19.10;99.90;;;;;;8400217;28;20209;-67
2022/06/03 19:56:23;;;;;;;3.23;1.80;;;18.80;99.90;;;;;;8399028;28;20193;-67
2022/06/03 20:00:28;;;;;;;2.37;1.93;;;18.70;1.00;;;;;;8407205;28;20289;-67
2022/06/03 20:04:35;;;;;;;2.23;2.03;;;18.50;1.00;;;;;;8392885;28;20189;-70
2022/06/03 20:08:46;;;;;;;1.97;1.77;;;18.30;1.00;;;;;;8406903;28;20176;-68
2022/06/03 20:17:18;;;;;;;3.43;2.40;;;18.00;1.00;;;;;;8402599;28;20200;-68
2022/06/03 20:21:47;;;;;;;2.93;2.37;;;17.90;44.30;;;;;;8405635;28;20208;-68
2022/06/03 20:26:16;;;;;;;3.00;2.30;;;17.70;99.90;;;;;;8384656;28;20185;-68
2022/06/03 20:30:28;;;;;;;2.50;2.30;;;17.50;99.90;;;;;;8401158;28;20201;-68
2022/06/03 20:34:41;;;;;;;4.87;3.90;;;17.30;99.90;;;;;;8406907;28;20332;-68
2022/06/03 20:38:49;;;;;;;5.93;3.10;;;17.20;99.90;;;;;;8396579;28;20180;-68
2022/06/03 20:43:06;;;;;;;2.77;2.47;;;17.00;99.90;;;;;;8400631;28;20215;-68
2022/06/03 20:47:26;;;;;;;2.60;2.40;;;16.80;1.00;;;;;;8395208;28;20184;-67
2022/06/03 20:51:58;;;;;;;2.40;2.20;;;16.70;1.00;;;;;;8395859;28;20205;-68
2022/06/03 20:56:07;;;;;;;2.27;2.10;;;16.60;46.90;;;;;;8383422;28;20184;-67
2022/06/03 21:00:26;;;;;;;3.03;2.50;;;16.40;92.10;;;;;;8406135;28;20199;-67
2022/06/03 21:13:09;;;;;;;2.93;2.73;;;16.20;99.90;;;;;;8398017;28;20201;-68
2022/06/03 21:17:10;;;;;;;2.50;2.17;;;16.10;99.90;;;;;;8392496;28;20169;-68
2022/06/03 21:21:36;;;;;;;3.50;2.60;;;16.00;99.90;;;;;;8398752;28;20212;-67
2022/06/03 21:25:37;;;;;;;3.17;2.87;;;16.00;99.90;;;;;;8401544;28;20219;-68
2022/06/03 21:29:37;;;;;;;3.70;2.57;;;16.00;99.90;;;;;;8390700;28;20279;-68
2022/06/03 21:34:05;;;;;;;2.83;2.47;;;16.00;99.90;;;;;;8395195;28;20181;-68
2022/06/03 21:38:23;;;;;;;2.60;2.40;;;15.90;99.90;;;;;;8388692;28;20726;-68
2022/06/03 21:42:41;;;;;;;3.33;2.73;;;15.90;99.90;;;;;;8400524;28;20209;-68
2022/06/03 21:46:55;;;;;;;3.83;2.90;;;15.80;1.00;;;;;;8405202;28;20209;-67
2022/06/03 21:51:24;;;;;;;3.10;2.80;;;15.70;1.00;;;;;;8405840;28;20198;-67
2022/06/03 21:55:41;;;;;;;3.33;2.47;;;15.80;1.00;;;;;;8396167;28;20232;-67
2022/06/03 21:59:48;;;;;;;3.20;2.90;;;15.70;1.00;;;;;;8410977;28;20296;-67
2022/06/03 22:03:52;;;;;;;3.20;2.90;;;15.70;1.00;;;;;;8402279;28;20264;-68
2022/06/03 22:07:53;;;;;;;3.37;2.83;;;15.70;1.00;;;;;;8405300;28;20189;-67
2022/06/03 22:16:13;;;;;;;3.17;2.87;;;15.70;1.00;;;;;;8402672;28;20192;-67
2022/06/03 22:20:18;;;;;;;4.03;3.60;;;15.60;1.00;;;;;;8405924;28;20200;-68
2022/06/03 22:24:19;;;;;;;6.60;4.47;;;15.60;1.00;;;;;;8409404;28;20212;-68
2022/06/03 22:28:49;;;;;;;5.60;3.87;;;15.70;1.00;;;;;;8406212;28;20250;-67
2022/06/03 22:33:34;;;;;;;4.30;3.57;;;15.80;1.00;;;;;;8401271;28;20254;-69
2022/06/03 22:42:49;;;;;;;5.60;5.10;;;15.60;70.70;;;;;;8368433;28;20251;-69
2022/06/03 22:46:52;;;;;;;4.77;4.10;;;15.50;99.90;;;;;;8401528;28;20196;-68
2022/06/03 22:50:53;;;;;;;4.70;4.17;;;15.40;99.90;;;;;;8407496;28;20186;-69
2022/06/03 22:54:54;;;;;;;3.93;3.63;;;15.30;1.00;;;;;;8406953;28;20188;-68
2022/06/03 22:58:55;;;;;;;3.80;3.50;;;15.20;1.00;;;;;;8403418;28;20271;-68
2022/06/03 23:02:56;;;;;;;4.43;3.40;;;15.20;6.70;;;;;;8396743;28;20207;-68
2022/06/03 23:06:57;;;;;;;4.20;3.80;;;15.20;34.10;;;;;;8400695;28;20192;-68
2022/06/03 23:10:58;;;;;;;3.53;3.23;;;15.20;68.80;;;;;;8410584;28;20188;-68
2022/06/03 23:14:59;;;;;;;3.77;3.47;;;15.20;30.00;;;;;;8399758;28;20187;-68
2022/06/03 23:19:00;;;;;;;4.00;3.60;;;15.20;1.00;;;;;;8402325;28;20177;-69
2022/06/03 23:23:04;;;;;;;4.27;3.37;;;15.20;99.90;;;;;;8397807;28;20189;-69
2022/06/03 23:27:04;;;;;;;3.17;2.87;;;15.30;99.90;;;;;;8406613;28;20270;-69
2022/06/03 23:31:08;;;;;;;3.40;3.10;;;15.40;99.90;;;;;;8406093;28;20245;-69
2022/06/03 23:35:09;;;;;;;3.73;3.43;;;15.40;99.90;;;;;;8393494;28;20185;-70
2022/06/03 23:39:10;;;;;;;3.87;3.47;;;15.50;93.90;;;;;;8405871;28;20184;-69
2022/06/03 23:47:31;;;;;;;4.87;3.77;;;15.60;99.90;;;;;;8397281;28;20196;-69
2022/06/03 23:51:32;;;;;;;3.77;3.40;;;15.60;99.90;;;;;;8399572;28;20271;-68
2022/06/03 23:55:34;;;;;;;3.43;3.13;;;15.60;99.90;;;;;;8394486;28;20181;-69